createdAt,value
2023-05-10T00:02:11.658Z,100966.38
2023-05-10T00:04:44.417Z,100961.94
2023-05-10T00:07:11.562Z,100957.91
2023-05-10T00:09:38.025Z,100957.91
2023-05-10T00:12:04.736Z,100955.13
2023-05-10T00:14:31.265Z,100956.22
2023-05-10T00:16:57.824Z,100960.66
2023-05-10T00:19:24.347Z,100958.03
2023-05-10T00:21:50.959Z,100956.22
2023-05-10T00:24:17.565Z,100952.50
2023-05-10T00:26:44.169Z,100947.38
2023-05-10T00:29:10.775Z,100950.84
2023-05-10T00:31:37.373Z,100949.03
2023-05-10T00:34:05.269Z,100950.84
2023-05-10T00:36:32.284Z,100955.25
2023-05-10T00:38:59.004Z,100948.34
2023-05-10T00:41:25.576Z,100953.59
2023-05-10T00:43:52.049Z,100955.13
2023-05-10T00:46:19.290Z,100957.75
2023-05-10T00:48:46.281Z,100945.72
2023-05-10T00:51:13.143Z,100955.13
2023-05-10T00:53:39.852Z,100945.44
2023-05-10T00:56:06.578Z,100951.66
2023-05-10T00:58:33.370Z,100961.34
2023-05-10T01:01:01.512Z,100959.00
2023-05-10T01:03:29.154Z,100957.34
2023-05-10T01:05:56.235Z,100953.47
2023-05-10T01:08:22.925Z,100958.88
2023-05-10T01:10:50.235Z,100954.44
2023-05-10T01:13:31.006Z,100950.69
2023-05-10T01:15:58.590Z,100955.13
2023-05-10T01:18:26.315Z,100957.63
2023-05-10T01:21:10.726Z,100961.22
2023-05-10T01:24:08.810Z,100963.16
2023-05-10T01:27:02.956Z,100961.22
2023-05-10T01:30:14.170Z,100961.34
2023-05-10T01:32:47.584Z,100951.94
2023-05-10T01:35:24.183Z,100959.00
2023-05-10T01:38:23.534Z,100952.09
2023-05-10T01:41:22.188Z,100954.56
2023-05-10T01:43:56.897Z,100956.47
2023-05-10T01:46:44.037Z,100960.53
2023-05-10T01:49:18.534Z,100964.00
2023-05-10T01:51:50.003Z,100958.88
2023-05-10T01:54:20.560Z,100960.81
2023-05-10T01:56:53.608Z,100954.81
2023-05-10T01:59:21.592Z,100956.63
2023-05-10T02:01:50.983Z,100957.47
2023-05-10T02:04:20.308Z,100955.78
2023-05-10T02:06:48.973Z,100961.19
2023-05-10T02:09:17.633Z,100963.00
2023-05-10T02:11:45.094Z,100961.34
2023-05-10T02:14:12.624Z,100964.66
2023-05-10T02:16:40.603Z,100964.66
2023-05-10T02:19:09.473Z,100966.59
2023-05-10T02:21:36.907Z,100964.94
2023-05-10T02:24:05.452Z,100968.41
2023-05-10T02:26:34.954Z,100975.31
2023-05-10T02:29:04.366Z,100973.66
2023-05-10T02:31:34.980Z,100977.97
2023-05-10T02:34:03.722Z,100982.38
2023-05-10T02:36:32.903Z,100975.47
2023-05-10T02:39:02.721Z,100976.69
2023-05-10T02:41:31.863Z,100981.13
2023-05-10T02:44:02.186Z,100990.53
2023-05-10T02:46:28.872Z,100990.41
2023-05-10T02:48:55.528Z,100985.16
2023-05-10T02:51:25.999Z,100998.19
2023-05-10T02:53:54.978Z,100986.00
2023-05-10T02:56:26.775Z,100986.69
2023-05-10T02:58:53.671Z,100989.56
2023-05-10T03:01:20.282Z,100986.94
2023-05-10T03:03:46.790Z,100993.56
2023-05-10T03:06:13.284Z,100998.00
2023-05-10T03:08:39.841Z,101000.75
2023-05-10T03:11:27.990Z,100992.31
2023-05-10T03:14:25.729Z,100992.44
2023-05-10T03:16:59.920Z,100998.53
2023-05-10T03:19:37.135Z,100998.66
2023-05-10T03:22:11.035Z,101004.31
2023-05-10T03:24:39.743Z,101004.47
2023-05-10T03:27:07.390Z,101002.78
2023-05-10T03:29:34.581Z,101001.94
2023-05-10T03:32:01.416Z,101003.63
2023-05-10T03:34:27.956Z,101012.34
2023-05-10T03:36:54.592Z,101005.44
2023-05-10T03:39:22.344Z,101010.09
2023-05-10T03:41:48.914Z,101008.31
2023-05-10T03:44:15.393Z,100998.59
2023-05-10T03:46:41.991Z,101002.06
2023-05-10T03:49:08.599Z,101003.72
2023-05-10T03:51:35.470Z,101001.81
2023-05-10T03:54:02.161Z,101007.09
2023-05-10T03:56:28.716Z,101009.97
2023-05-10T03:58:55.222Z,101012.72
2023-05-10T04:01:21.751Z,101009.00
2023-05-10T04:03:48.437Z,101006.94
2023-05-10T04:06:15.111Z,101008.88
2023-05-10T04:08:41.615Z,101010.78
2023-05-10T04:11:10.152Z,101012.44
2023-05-10T04:13:36.837Z,101016.78
2023-05-10T04:16:03.734Z,101017.72
2023-05-10T04:18:30.203Z,101023.94
2023-05-10T04:20:56.870Z,101014.38
2023-05-10T04:23:23.338Z,101016.19
2023-05-10T04:25:50.004Z,101018.00
2023-05-10T04:28:16.558Z,101015.06
2023-05-10T04:30:43.237Z,101016.78
2023-05-10T04:33:09.726Z,101018.44
2023-05-10T04:35:36.552Z,101017.47
2023-05-10T04:38:03.147Z,101019.13
2023-05-10T04:40:29.679Z,101018.28
2023-05-10T04:42:57.287Z,101009.56
2023-05-10T04:45:23.893Z,101011.25
2023-05-10T04:47:50.596Z,101013.03
2023-05-10T04:50:17.360Z,101017.59
2023-05-10T04:52:44.074Z,101028.69
2023-05-10T04:55:11.105Z,101031.31
2023-05-10T04:57:37.795Z,101034.22
2023-05-10T05:00:04.890Z,101037.53
2023-05-10T05:02:31.842Z,101034.78
2023-05-10T05:04:58.940Z,101040.03
2023-05-10T05:07:25.628Z,101039.34
2023-05-10T05:09:52.237Z,101039.19
2023-05-10T05:12:18.782Z,101043.25
2023-05-10T05:14:45.473Z,101044.78
2023-05-10T05:17:12.278Z,101044.78
2023-05-10T05:19:38.899Z,101049.91
2023-05-10T05:22:08.099Z,101055.06
2023-05-10T05:24:37.514Z,101049.66
2023-05-10T05:27:04.160Z,101056.56
2023-05-10T05:29:30.776Z,101064.47
2023-05-10T05:31:57.241Z,101061.84
2023-05-10T05:34:23.901Z,101067.22
2023-05-10T05:36:50.653Z,101070.69
2023-05-10T05:39:17.295Z,101067.78
2023-05-10T05:41:44.999Z,101068.63
2023-05-10T05:44:11.480Z,101071.25
2023-05-10T05:46:38.093Z,101073.06
2023-05-10T05:49:04.970Z,101069.97
2023-05-10T05:51:32.144Z,101068.31
2023-05-10T05:53:58.995Z,101077.03
2023-05-10T05:56:26.587Z,101078.97
2023-05-10T05:58:53.103Z,101075.38
2023-05-10T06:01:19.993Z,101088.53
2023-05-10T06:03:46.905Z,101084.94
2023-05-10T06:06:13.634Z,101092.94
2023-05-10T06:08:40.462Z,101092.94
2023-05-10T06:11:06.922Z,101091.75
2023-05-10T06:13:34.307Z,101096.03
2023-05-10T06:16:01.273Z,101099.38
2023-05-10T06:18:31.523Z,101099.03
2023-05-10T06:20:58.599Z,101104.81
2023-05-10T06:23:26.529Z,101109.00
2023-05-10T06:25:53.490Z,101101.69
2023-05-10T06:28:20.224Z,101110.16
2023-05-10T06:30:47.243Z,101104.50
2023-05-10T06:33:13.935Z,101106.75
2023-05-10T06:35:46.770Z,101102.06
2023-05-10T06:38:13.737Z,101107.72
2023-05-10T06:40:46.217Z,101107.00
2023-05-10T06:43:12.958Z,101107.84
2023-05-10T06:45:43.321Z,101113.09
2023-05-10T06:48:15.836Z,101109.22
2023-05-10T06:50:46.187Z,101116.06
2023-05-10T06:53:15.783Z,101117.44
2023-05-10T06:55:42.596Z,101125.19
2023-05-10T06:58:11.432Z,101123.94
2023-05-10T07:00:41.547Z,101127.50
2023-05-10T07:03:08.426Z,101124.38
2023-05-10T07:05:35.439Z,101130.78
2023-05-10T07:08:02.290Z,101126.47
2023-05-10T07:10:28.924Z,101133.53
2023-05-10T07:12:56.255Z,101134.78
2023-05-10T07:15:23.130Z,101135.72
2023-05-10T07:17:50.845Z,101145.41
2023-05-10T07:20:17.593Z,101142.78
2023-05-10T07:22:44.420Z,101139.09
2023-05-10T07:25:11.259Z,101140.75
2023-05-10T07:27:38.322Z,101142.13
2023-05-10T07:30:05.381Z,101148.94
2023-05-10T07:32:32.732Z,101151.31
2023-05-10T07:35:02.322Z,101158.00
2023-05-10T07:37:28.982Z,101156.88
2023-05-10T07:39:55.671Z,101163.56
2023-05-10T07:42:23.109Z,101161.81
2023-05-10T07:44:49.799Z,101170.56
2023-05-10T07:47:16.418Z,101169.66
2023-05-10T07:49:43.280Z,101177.88
2023-05-10T07:52:09.863Z,101176.38
2023-05-10T07:54:36.488Z,101175.00
2023-05-10T07:57:03.215Z,101171.25
2023-05-10T07:59:29.909Z,101180.00
2023-05-10T08:04:36.245Z,101185.94
2023-05-10T08:07:03.040Z,101187.03
2023-05-10T08:09:29.708Z,101193.97
2023-05-10T08:11:57.923Z,101192.72
2023-05-10T08:14:24.666Z,101190.09
2023-05-10T08:16:51.485Z,101194.13
2023-05-10T08:19:20.592Z,101199.25
2023-05-10T08:21:47.381Z,101196.63
2023-05-10T08:24:14.028Z,101195.78
2023-05-10T08:26:43.465Z,101203.84
2023-05-10T08:29:11.004Z,101199.41
2023-05-10T08:31:38.017Z,101205.53
2023-05-10T08:34:04.847Z,101204.03
2023-05-10T08:36:31.442Z,101205.56
2023-05-10T08:38:58.338Z,101210.25
2023-05-10T08:41:26.696Z,101223.84
2023-05-10T08:43:54.985Z,101220.81
2023-05-10T08:46:23.892Z,101223.31
2023-05-10T08:48:53.125Z,101229.72
2023-05-10T08:51:26.554Z,101223.75
2023-05-10T08:53:53.710Z,101230.53
2023-05-10T08:56:21.386Z,101233.91
2023-05-10T08:58:48.313Z,101232.53
2023-05-10T09:01:17.586Z,101236.16
2023-05-10T09:03:44.749Z,101234.66
2023-05-10T09:06:14.156Z,101239.13
2023-05-10T09:08:46.007Z,101230.56
2023-05-10T09:11:13.960Z,101235.44
2023-05-10T09:16:49.257Z,101232.78
2023-05-10T09:19:16.053Z,101229.69
2023-05-10T09:21:42.784Z,101233.13
2023-05-10T09:24:09.969Z,101232.00
2023-05-10T09:27:10.859Z,101241.53
2023-05-10T09:29:46.655Z,101234.72
2023-05-10T09:34:51.552Z,101233.88
2023-05-10T09:37:30.372Z,101243.75
2023-05-10T09:40:10.975Z,101240.06
2023-05-10T09:42:42.370Z,101244.84
2023-05-10T09:50:58.075Z,101250.59
2023-05-10T09:53:24.745Z,101260.81
2023-05-10T09:55:52.326Z,101259.66
2023-05-10T09:58:22.286Z,101264.50
2023-05-10T10:00:52.451Z,101267.16
2023-05-10T10:03:21.395Z,101271.13
2023-05-10T10:05:49.317Z,101267.50
2023-05-10T10:08:16.792Z,101267.75
2023-05-10T10:10:47.202Z,101273.19
2023-05-10T10:13:14.757Z,101273.34
2023-05-10T10:15:43.287Z,101266.66
2023-05-10T10:18:15.198Z,101274.25
2023-05-10T10:20:42.839Z,101280.81
2023-05-10T10:23:09.576Z,101286.31
2023-05-10T10:25:36.715Z,101279.44
2023-05-10T10:28:44.133Z,101282.91
2023-05-10T10:31:33.736Z,101280.03
2023-05-10T10:34:29.045Z,101283.50
2023-05-10T10:36:57.787Z,101284.09
2023-05-10T10:39:26.408Z,101286.59
2023-05-10T10:41:57.810Z,101291.75
2023-05-10T10:44:25.741Z,101283.09
2023-05-10T10:47:38.752Z,101295.47
2023-05-10T10:50:07.676Z,101286.22
2023-05-10T10:52:39.500Z,101285.09
2023-05-10T10:55:20.464Z,101287.03
2023-05-10T10:57:53.477Z,101288.59
2023-05-10T11:00:21.396Z,101284.06
2023-05-10T11:02:59.082Z,101291.88
2023-05-10T11:05:28.569Z,101284.91
2023-05-10T11:07:59.461Z,101289.38
2023-05-10T11:10:27.229Z,101290.72
2023-05-10T11:13:01.962Z,101287.69
2023-05-10T11:15:36.937Z,101297.38
2023-05-10T11:18:21.694Z,101297.75
2023-05-10T11:21:11.541Z,101291.50
2023-05-10T11:23:41.320Z,101300.53
2023-05-10T11:26:10.576Z,101299.97
2023-05-10T11:28:46.401Z,101294.09
2023-05-10T11:31:17.797Z,101295.09
2023-05-10T11:33:58.537Z,101296.63
2023-05-10T11:36:27.245Z,101293.81
2023-05-10T11:38:54.634Z,101302.91
2023-05-10T11:41:24.282Z,101299.81
2023-05-10T11:43:52.401Z,101298.34
2023-05-10T11:46:25.178Z,101295.88
2023-05-10T11:48:53.592Z,101289.75
2023-05-10T11:51:24.958Z,101293.41
2023-05-10T11:53:54.133Z,101291.72
2023-05-10T11:56:22.751Z,101296.84
2023-05-10T11:58:57.005Z,101303.22
2023-05-10T12:01:24.427Z,101298.56
2023-05-10T12:03:52.574Z,101312.59
2023-05-10T12:06:20.860Z,101312.03
2023-05-10T12:08:49.177Z,101312.47
2023-05-10T12:11:18.724Z,101314.34
2023-05-10T12:13:48.051Z,101315.19
2023-05-10T12:16:20.811Z,101314.22
2023-05-10T12:18:54.349Z,101315.75
2023-05-10T12:21:22.056Z,101311.84
2023-05-10T12:23:51.554Z,101306.63
2023-05-10T12:26:18.425Z,101310.88
2023-05-10T12:28:45.307Z,101308.66
2023-05-10T12:31:11.832Z,101310.34
2023-05-10T12:33:40.581Z,101304.44
2023-05-10T12:36:07.713Z,101297.84
2023-05-10T12:38:39.268Z,101299.94
2023-05-10T12:41:10.973Z,101302.09
2023-05-10T12:43:38.929Z,101306.44
2023-05-10T12:46:09.282Z,101303.13
2023-05-10T12:48:37.650Z,101302.59
2023-05-10T12:51:05.603Z,101306.44
2023-05-10T12:53:32.433Z,101315.91
2023-05-10T12:55:58.883Z,101304.59
2023-05-10T12:58:35.051Z,101310.56
2023-05-10T13:01:02.851Z,101310.44
2023-05-10T13:03:29.352Z,101317.41
2023-05-10T13:05:55.848Z,101319.31
2023-05-10T13:08:22.249Z,101325.31
2023-05-10T13:10:48.941Z,101326.63
2023-05-10T13:13:16.091Z,101329.38
2023-05-10T13:15:42.473Z,101326.22
2023-05-10T13:18:09.264Z,101337.63
2023-05-10T13:20:36.000Z,101337.72
2023-05-10T13:23:03.527Z,101337.69
2023-05-10T13:25:30.035Z,101341.78
2023-05-10T13:27:56.568Z,101347.25
2023-05-10T13:30:24.692Z,101343.31
2023-05-10T13:32:51.226Z,101354.66
2023-05-10T13:35:17.849Z,101356.84
2023-05-10T13:37:45.547Z,101364.34
2023-05-10T13:40:12.373Z,101361.63
2023-05-10T13:42:38.805Z,101374.38
2023-05-10T13:45:06.061Z,101372.56
2023-05-10T13:47:32.507Z,101374.56
2023-05-10T13:49:59.323Z,101373.06
2023-05-10T13:52:25.845Z,101374.63
2023-05-10T13:54:55.732Z,101374.84
2023-05-10T13:57:22.867Z,101375.94
2023-05-10T13:59:49.317Z,101377.50
2023-05-10T14:02:15.699Z,101374.84
2023-05-10T14:04:42.291Z,101377.69
2023-05-10T14:07:08.923Z,101386.88
2023-05-10T14:09:35.388Z,101381.84
2023-05-10T14:12:01.856Z,101391.44
2023-05-10T14:14:30.028Z,101387.44
2023-05-10T14:16:56.850Z,101377.81
2023-05-10T14:19:23.246Z,101379.09
2023-05-10T14:21:49.824Z,101391.63
2023-05-10T14:24:16.338Z,101384.09
2023-05-10T14:26:42.788Z,101387.69
2023-05-10T14:29:10.791Z,101388.16
2023-05-10T14:31:38.834Z,101393.00
2023-05-10T14:34:05.325Z,101397.72
2023-05-10T14:36:32.703Z,101392.31
2023-05-10T14:38:59.066Z,101392.88
2023-05-10T14:41:25.686Z,101389.09
2023-05-10T14:43:52.337Z,101385.78
2023-05-10T14:46:22.260Z,101380.06
2023-05-10T14:48:48.658Z,101383.69
2023-05-10T14:51:15.119Z,101391.91
2023-05-10T14:53:41.607Z,101382.72
2023-05-10T14:56:08.154Z,101387.44
2023-05-10T14:58:34.699Z,101388.81
2023-05-10T15:01:01.747Z,101388.16
2023-05-10T15:03:28.730Z,101386.44
2023-05-10T15:05:57.001Z,101388.81
2023-05-10T15:08:24.805Z,101392.56
2023-05-10T15:10:51.963Z,101389.38
2023-05-10T15:13:18.505Z,101389.94
2023-05-10T15:15:44.940Z,101391.31
2023-05-10T15:18:11.476Z,101390.47
2023-05-10T15:20:38.025Z,101383.13
2023-05-10T15:23:04.570Z,101384.94
2023-05-10T15:25:31.023Z,101385.03
2023-05-10T15:27:57.536Z,101384.06
2023-05-10T15:30:24.091Z,101377.75
2023-05-10T15:32:50.563Z,101384.59
2023-05-10T15:35:18.002Z,101383.19
2023-05-10T15:37:49.206Z,101382.91
2023-05-10T15:40:16.041Z,101387.91
2023-05-10T15:42:42.524Z,101376.06
2023-05-10T15:45:09.655Z,101386.19
2023-05-10T15:47:36.222Z,101391.06
2023-05-10T15:50:02.842Z,101386.88
2023-05-10T15:52:29.514Z,101387.78
2023-05-10T15:54:56.421Z,101391.13
2023-05-10T15:57:23.548Z,101400.59
2023-05-10T15:59:50.824Z,101392.94
2023-05-10T16:02:19.394Z,101398.63
2023-05-10T16:04:46.108Z,101406.25
2023-05-10T16:07:12.723Z,101403.75
2023-05-10T16:09:42.010Z,101403.66
2023-05-10T16:12:08.620Z,101408.13
2023-05-10T16:14:35.238Z,101411.59
2023-05-10T16:17:03.235Z,101405.22
2023-05-10T16:19:30.339Z,101409.00
2023-05-10T16:21:57.010Z,101415.66
2023-05-10T16:24:23.705Z,101407.59
2023-05-10T16:26:50.416Z,101415.22
2023-05-10T16:29:17.222Z,101415.09
2023-05-10T16:31:44.377Z,101420.38
2023-05-10T16:34:11.231Z,101420.13
2023-05-10T16:36:37.888Z,101414.25
2023-05-10T16:39:04.512Z,101414.09
2023-05-10T16:41:34.678Z,101418.31
2023-05-10T16:44:04.961Z,101424.44
2023-05-10T16:46:42.389Z,101416.78
2023-05-10T16:49:15.804Z,101415.38
2023-05-10T16:51:46.511Z,101410.72
2023-05-10T18:52:06.680Z,101492.16
2023-05-10T19:16:53.539Z,101504.84
2023-05-10T19:19:21.494Z,101506.06
2023-05-10T19:40:18.600Z,101529.38
2023-05-10T19:42:45.269Z,101524.38
2023-05-10T19:45:12.368Z,101533.31
2023-05-10T19:47:41.923Z,101536.72
2023-05-10T19:56:06.830Z,101531.94
2023-05-10T19:58:34.504Z,101521.75
2023-05-10T20:01:07.635Z,101533.97
2023-05-10T20:03:35.260Z,101539.91
2023-05-10T20:06:04.106Z,101542.06
2023-05-10T20:17:39.955Z,101542.19
2023-05-10T20:20:07.342Z,101543.94
2023-05-10T20:22:34.000Z,101543.56
2023-05-10T20:25:02.822Z,101543.94
2023-05-10T20:27:29.436Z,101545.97
2023-05-10T20:29:56.641Z,101548.75
2023-05-10T20:32:23.442Z,101550.69
2023-05-10T20:34:50.337Z,101554.38
2023-05-10T20:37:20.426Z,101554.16
2023-05-10T20:39:54.918Z,101549.72
2023-05-10T20:42:22.813Z,101556.06
2023-05-10T20:44:51.912Z,101557.00
2023-05-10T20:47:22.122Z,101555.47
2023-05-10T20:49:52.133Z,101558.13
2023-05-10T20:52:24.679Z,101552.00
2023-05-10T20:54:54.116Z,101555.84
2023-05-10T20:57:22.110Z,101548.19
2023-05-10T20:59:50.825Z,101556.09
2023-05-10T21:02:17.710Z,101556.09
2023-05-10T21:04:44.759Z,101553.34
2023-05-10T21:07:12.367Z,101559.34
2023-05-10T21:09:39.117Z,101559.22
2023-05-10T21:12:05.993Z,101560.41
2023-05-10T21:14:32.897Z,101549.28
2023-05-10T21:17:16.227Z,101555.63
2023-05-10T21:28:07.634Z,101558.75
2023-05-10T21:30:44.401Z,101558.06
2023-05-10T21:54:37.812Z,101540.25
2023-05-10T21:57:19.002Z,101551.19
2023-05-10T22:07:50.633Z,101543.53
2023-05-10T22:10:18.177Z,101547.00
2023-05-10T22:12:44.920Z,101550.69
2023-05-10T22:15:12.082Z,101554.16
2023-05-10T22:17:40.886Z,101562.06
2023-05-10T22:20:08.946Z,101555.84
2023-05-10T22:22:37.325Z,101568.25
2023-05-10T22:25:17.550Z,101567.44
2023-05-10T22:30:31.023Z,101554.91
2023-05-10T22:33:12.803Z,101561.00
2023-05-10T22:47:21.623Z,101565.19
2023-05-10T22:49:48.771Z,101560.88
2023-05-10T22:52:15.988Z,101564.34
2023-05-10T22:54:45.291Z,101560.75
2023-05-10T23:13:43.425Z,101570.44
